Marion Island, South Africa
Current Conditions -  °F | °C
As of 8:00 PM on Friday 19 Dec 2014 (Local Time) from FAEL Reporting Station
Broken Clouds Broken Clouds  
Wind Chill: 68°   Ceiling: 4000
Heat Index: 68°   Visibility: 6mi
Dew Point: 64°   Wind: 2mph
Humidity: 88%   Direction: NA
Pressure: 29.91"   Gusts: NA
Location:  46.9°S, 37.75°E
Report Text: FAEL 191800Z VRB02KT 9999 SCT033 BKN040 20/18 Q1013
Loading
Personal Weather Stations






























Interactive Weather Map New forecast layout! Learn more

10-Day Weather Forecast

Advertisements
Track Severe Weather on mobile